»·PEaware :: SWQ17 KRNO-KHND

SWQ17 :: KRNO-KHND

FLIGHT INFORMATION

Flight Status: Arrived
Operator: Unknown
More flights by this operator :: More flights under this callsign
Pilot: Luke O. (6875)
Aircraft: BOEING 737-300
(B733)
More flights by this aircraft type
Origin: KRNO Reno/Tahoe Intl
United States
Destination: KHND Henderson
United States
More flights between these airports :: More routes between these airports
Route: ZEFFR6 PESKE LIDAT BTY ADDEL1
File this flight plan on PilotEdge
Remarks: Swiftflight
Altitude:
(Current/Filed)
29,000ft
Speed:
(Current/Filed)
480kts
Departed: 12-Oct-17 08:50 PM
Arrived: 12-Oct-17 09:52 PM
Distance/Time
Traveled:
305nm/1:01
Distance/Time
To Go:
Arrived

Flight Plot

Page will automatically refresh every two minutes.

Flight plan parsing failed; only flown route is shown


Map Options




Map Legend


Flown Route
Filed Route
Departure Airport
Arrival Airport
Navaid (VOR, NDB)
Fix

Horizontal Profiles

Position Reports

Time Latitude Longitude Heading Altitude Ground
Speed
12-Oct-17 20:29 39.500420 -119.764471 180 4406ft 0kts
12-Oct-17 20:30 39.500420 -119.764471 180 4406ft 0kts
12-Oct-17 20:31 39.500420 -119.764471 180 4406ft 0kts
12-Oct-17 20:31 39.500420 -119.764471 180 4406ft 0kts
12-Oct-17 20:33 39.500420 -119.764471 180 4406ft 0kts
12-Oct-17 20:34 39.500420 -119.764471 180 4406ft 0kts
12-Oct-17 20:34 39.500420 -119.764471 180 4406ft 0kts
12-Oct-17 20:36 39.500420 -119.764471 180 4406ft 0kts
12-Oct-17 20:37 39.500420 -119.764471 180 4406ft 0kts
12-Oct-17 20:37 39.500420 -119.764471 180 4406ft 0kts
12-Oct-17 20:38 39.500420 -119.764471 180 4406ft 0kts
12-Oct-17 20:39 39.500420 -119.764471 180 4406ft 0kts
12-Oct-17 20:40 39.500420 -119.764471 180 4406ft 0kts
12-Oct-17 20:41 39.500420 -119.764471 180 4406ft 0kts
12-Oct-17 20:42 39.500420 -119.764471 180 4406ft 0kts
12-Oct-17 20:43 39.500420 -119.764471 180 4406ft 0kts
12-Oct-17 20:44 39.500420 -119.764471 180 4406ft 0kts
12-Oct-17 20:45 39.500420 -119.764471 180 4406ft 0kts
12-Oct-17 20:46 39.500368 -119.765035 314 4407ft 8kts
12-Oct-17 20:47 39.503408 -119.765782 359 4407ft 13kts
12-Oct-17 20:48 39.507396 -119.765770 359 4410ft 14kts
12-Oct-17 20:49 39.511290 -119.765147 359 4413ft 15kts
12-Oct-17 20:50 39.513679 -119.765465 283 4417ft 0kts
12-Oct-17 20:51 39.513681 -119.765476 283 4417ft 0kts
12-Oct-17 20:52 39.513681 -119.765477 283 4417ft 0kts
12-Oct-17 20:53 39.513055 -119.766751 179 4416ft 14kts
12-Oct-17 20:54 39.470267 -119.766049 175 6032ft 231kts
12-Oct-17 20:55 39.406018 -119.739412 142 9256ft 262kts
12-Oct-17 20:56 39.347319 -119.668841 130 11529ft 338kts
12-Oct-17 20:57 39.292886 -119.597620 157 14557ft 348kts
12-Oct-17 20:58 39.212994 -119.570544 155 17494ft 365kts
12-Oct-17 20:59 39.126368 -119.497642 139 20536ft 392kts
12-Oct-17 21:00 39.046875 -119.397682 140 23243ft 410kts
12-Oct-17 21:01 38.963443 -119.294019 142 25194ft 440kts
12-Oct-17 21:02 38.875481 -119.185387 143 26674ft 475kts
12-Oct-17 21:03 38.779210 -119.066980 144 28832ft 488kts
12-Oct-17 21:04 38.689637 -118.945891 143 28990ft 442kts
12-Oct-17 21:05 38.605627 -118.831840 143 28998ft 441kts
12-Oct-17 21:06 38.521810 -118.718278 143 28990ft 438kts
12-Oct-17 21:07 38.438259 -118.605489 143 28993ft 438kts
12-Oct-17 21:08 38.354564 -118.492906 143 28992ft 438kts
12-Oct-17 21:09 38.270664 -118.380459 144 28992ft 439kts
12-Oct-17 21:10 38.188898 -118.270945 144 28989ft 437kts
12-Oct-17 21:11 38.104952 -118.159212 144 28991ft 438kts
12-Oct-17 21:12 38.021023 -118.047928 144 28968ft 438kts
12-Oct-17 21:13 37.936877 -117.936726 144 28919ft 439kts
12-Oct-17 21:14 37.855206 -117.829412 144 28927ft 436kts
12-Oct-17 21:15 37.771235 -117.719302 144 28958ft 437kts
12-Oct-17 21:16 37.686873 -117.608984 144 28994ft 436kts
12-Oct-17 21:17 37.602638 -117.499221 144 29000ft 437kts
12-Oct-17 21:18 37.518252 -117.389633 144 28995ft 436kts
12-Oct-17 21:19 37.435756 -117.282591 145 28999ft 435kts
12-Oct-17 21:20 37.344539 -117.186855 151 29004ft 429kts
12-Oct-17 21:21 37.253549 -117.090579 151 29001ft 429kts
12-Oct-17 21:22 37.162336 -116.994243 151 29001ft 428kts
12-Oct-17 21:23 37.074506 -116.901741 151 29012ft 422kts
12-Oct-17 21:24 36.986396 -116.809256 150 28975ft 409kts
12-Oct-17 21:25 36.899818 -116.718721 150 28892ft 406kts
12-Oct-17 21:26 36.815048 -116.630525 150 28857ft 407kts
12-Oct-17 21:27 36.728496 -116.540524 150 28854ft 407kts
12-Oct-17 21:28 36.641658 -116.450491 150 28855ft 407kts
12-Oct-17 21:29 36.554591 -116.360496 150 28855ft 408kts
12-Oct-17 21:30 36.468681 -116.271702 149 26470ft 419kts
12-Oct-17 21:31 36.389950 -116.162016 137 23898ft 421kts
12-Oct-17 21:32 36.315267 -116.054400 138 21410ft 403kts
12-Oct-17 21:33 36.241386 -115.954444 138 19029ft 386kts
12-Oct-17 21:34 36.184164 -115.846546 112 16719ft 380kts
12-Oct-17 21:36 36.149184 -115.730839 115 15579ft 329kts
12-Oct-17 21:37 36.115507 -115.630388 114 14000ft 318kts
12-Oct-17 21:38 36.089838 -115.553782 113 12935ft 311kts
12-Oct-17 21:39 36.130298 -115.457172 12 12334ft 365kts
12-Oct-17 21:40 36.212628 -115.484378 6 11817ft 279kts
12-Oct-17 21:41 36.242174 -115.417140 118 11223ft 255kts
12-Oct-17 21:42 36.208538 -115.343668 121 10639ft 252kts
12-Oct-17 21:43 36.174339 -115.269227 121 10027ft 248kts
12-Oct-17 21:44 36.144159 -115.203508 121 9495ft 245kts
12-Oct-17 21:45 36.122031 -115.155199 121 9082ft 231kts
12-Oct-17 21:46 36.102816 -115.112675 121 8493ft 210kts
12-Oct-17 21:47 36.075932 -115.081690 177 7249ft 205kts
12-Oct-17 21:48 36.039430 -115.085028 210 5958ft 200kts
12-Oct-17 21:49 36.023044 -115.114350 243 4733ft 217kts
12-Oct-17 21:50 35.989919 -115.136086 180 3215ft 267kts
12-Oct-17 21:51 35.953149 -115.142642 217 4050ft 166kts
12-Oct-17 21:52 35.960117 -115.167059 3 4019ft 151kts
12-Oct-17 21:53 35.986988 -115.158530 18 3467ft 159kts
12-Oct-17 21:54 36.012578 -115.149912 32 3163ft 147kts
12-Oct-17 21:55 36.002375 -115.134586 179 2823ft 150kts
12-Oct-17 21:56 35.976786 -115.135321 178 2418ft 111kts
12-Oct-17 21:57 35.970931 -115.136949 271 2443ft 13kts

Navigation Log

Ident Type
Flight plan parsing failed, navigation log unavailable